Terminal Aerodrome Forecast
Issued by NWS

Home | Current Version | Previous Version | Text Only | Print | Product List | Glossary On
Versions: 1 2 3 4 5 6 7 8 9 10 11 12 13 14 15
000
FTUS44 KJAN 300600 RRA
TAFGTR
TAF
KGTR 300600Z 3006/0106 16014G22KT P6SM BKN035 OVC100
     FM301600 17015G30KT 5SM TSRA SCT015 BKN025CB OVC050
     FM302200 20012G20KT P6SM SHRA SCT025 OVC040
     FM010300 19008KT P6SM BKN100=

USA.gov is the U.S. government's official web portal to all federal, state and local government web resources and services.